Pagina principale
METAR-TAF:

METAR-TAF

Aeroporti :

Aeroporto di Mosca-Vnukovo

Mosca-Vnukovo, Russia

latitudine: 55-39N, longitudine: 037-16E, altezza: 203 m

Osservazione

Il bollettino è stato emesso 37 minuti fa, alle 19:00 UTC
Vento 4 kt da sud
Temperature 15°C
Umidità 67%
Pressione 1020 hPa
Visibilità 10 km o più
nessuna nube inferiore a 1500 m e nessun cumulonembo

METAR: UUWW 101900Z 17002MPS CAVOK 15/09 Q1020 R24/000070 NOSIG

Ora: 22:37 (19:37 UTC)

Previsione

Il bollettino è stato emesso 2 ore e 38 minuti fa, alle 16:59 UTC
Previsione valida dal 10 alle 18 UTC al 11 alle 18 UTC
Vento 6 kt da ovest/sud-ovest con raffiche fino a 16 kt
Visibilità 10 km o più
Nubi sparse ad un'altezza di 4000 ft
Evoluzione graduale
dal 11 alle 03 UTC al 11 alle 05 UTC
Vento 14 kt da sud con raffiche fino a 25 kt

TAF: UUWW 101659Z 1018/1118 25003G08MPS 9999 SCT040 TX28/1112Z TN15/1102Z BECMG 1103/1105 19007G13MPS

Osservazioni e previsioni meteorologiche di più di 4000 aeroporti (messaggi METAR e TAF).

Le stazioni disponibili sono rappresentate dai dischi gialli e rossi sulla carta.

Puntare il mouse per vedere il nome della stazione.

Clicca sopra per visualizzare le osservazioni e previsioni meteorologiche.

Per cambiare la mappa : fare clic sui pulsanti verdi con una croce nera per ingrandire, il pulsante verde con un trattino per diminuire, o sulla freccia verde per le mappe adiacenti.


METAR-TAF: